createdAt,value
2023-04-18T00:00:53.917Z,102802.75
2023-04-18T00:03:20.424Z,102794.94
2023-04-18T00:05:46.992Z,102797.44
2023-04-18T00:08:14.242Z,102792.38
2023-04-18T00:10:40.835Z,102795.03
2023-04-18T00:13:07.237Z,102797.66
2023-04-18T00:15:34.080Z,102794.75
2023-04-18T00:18:00.410Z,102799.22
2023-04-18T00:20:26.666Z,102793.78
2023-04-18T00:22:53.023Z,102799.22
2023-04-18T00:25:19.360Z,102797.06
2023-04-18T00:27:45.884Z,102801.22
2023-04-18T00:30:12.553Z,102795.66
2023-04-18T00:32:39.119Z,102799.13
2023-04-18T00:35:06.152Z,102789.66
2023-04-18T00:37:32.541Z,102798.16
2023-04-18T00:39:58.807Z,102798.84
2023-04-18T00:42:25.176Z,102786.94
2023-04-18T00:44:51.447Z,102793.97
2023-04-18T00:47:17.835Z,102784.78
2023-04-18T00:49:44.854Z,102785.84
2023-04-18T00:52:12.528Z,102792.13
2023-04-18T00:54:40.578Z,102788.84
2023-04-18T00:57:07.561Z,102785.19
2023-04-18T00:59:35.032Z,102788.47
2023-04-18T01:02:05.082Z,102780.25
2023-04-18T01:04:31.970Z,102783.88
2023-04-18T01:06:58.907Z,102784.13
2023-04-18T01:09:25.908Z,102786.25
2023-04-18T01:11:52.353Z,102783.06
2023-04-18T01:14:19.861Z,102779.91
2023-04-18T01:16:46.651Z,102780.38
2023-04-18T01:19:14.480Z,102790.91
2023-04-18T01:21:40.848Z,102776.84
2023-04-18T01:24:07.839Z,102779.09
2023-04-18T01:26:34.200Z,102770.22
2023-04-18T01:29:00.529Z,102774.22
2023-04-18T01:31:26.966Z,102757.69
2023-04-18T01:33:53.411Z,102761.72
2023-04-18T01:36:19.695Z,102768.66
2023-04-18T01:38:46.094Z,102765.13
2023-04-18T01:41:12.381Z,102770.44
2023-04-18T01:43:38.863Z,102768.34
2023-04-18T01:46:05.361Z,102761.63
2023-04-18T01:48:31.721Z,102765.75
2023-04-18T01:50:57.970Z,102774.13
2023-04-18T01:53:24.392Z,102768.97
2023-04-18T01:55:50.803Z,102767.88
2023-04-18T01:58:17.179Z,102768.97
2023-04-18T02:00:43.552Z,102772.84
2023-04-18T02:03:10.145Z,102766.94
2023-04-18T02:05:36.684Z,102770.63
2023-04-18T02:08:03.086Z,102765.19
2023-04-18T02:10:29.490Z,102768.16
2023-04-18T02:12:55.729Z,102775.94
2023-04-18T02:15:23.967Z,102764.47
2023-04-18T02:17:50.388Z,102773.22
2023-04-18T02:20:16.949Z,102771.44
2023-04-18T02:22:43.747Z,102775.91
2023-04-18T02:25:10.239Z,102761.41
2023-04-18T02:27:36.646Z,102763.28
2023-04-18T02:30:03.035Z,102772.00
2023-04-18T02:32:29.465Z,102771.28
2023-04-18T02:34:55.821Z,102763.97
2023-04-18T02:37:22.085Z,102769.41
2023-04-18T02:39:48.468Z,102767.38
2023-04-18T02:42:14.741Z,102764.41
2023-04-18T02:44:41.069Z,102766.63
2023-04-18T02:47:07.400Z,102768.38
2023-04-18T02:49:33.756Z,102770.50
2023-04-18T02:52:00.119Z,102764.69
2023-04-18T02:54:26.608Z,102766.72
2023-04-18T02:56:54.364Z,102767.09
2023-04-18T02:59:20.863Z,102758.25
2023-04-18T03:01:47.257Z,102772.91
2023-04-18T03:04:13.847Z,102778.00
2023-04-18T03:06:40.538Z,102768.00
2023-04-18T03:09:06.838Z,102769.66
2023-04-18T03:11:33.171Z,102758.81
2023-04-18T03:13:59.521Z,102763.09
2023-04-18T03:16:25.849Z,102764.25
2023-04-18T03:18:52.244Z,102766.47
2023-04-18T03:21:18.651Z,102760.94
2023-04-18T03:23:44.942Z,102764.97
2023-04-18T03:26:11.301Z,102776.06
2023-04-18T03:28:37.630Z,102770.03
2023-04-18T03:31:04.077Z,102773.19
2023-04-18T03:33:31.574Z,102772.97
2023-04-18T03:35:57.874Z,102774.28
2023-04-18T03:38:24.277Z,102775.31
2023-04-18T03:40:50.538Z,102772.25
2023-04-18T03:43:19.479Z,102777.56
2023-04-18T03:45:45.946Z,102775.31
2023-04-18T03:48:13.040Z,102776.41
2023-04-18T03:50:39.428Z,102773.91
2023-04-18T03:53:05.829Z,102778.88
2023-04-18T03:55:33.185Z,102774.03
2023-04-18T03:57:59.601Z,102774.63
2023-04-18T04:00:26.362Z,102779.69
2023-04-18T04:02:52.930Z,102780.50
2023-04-18T04:05:19.322Z,102777.69
2023-04-18T04:07:45.771Z,102783.81
2023-04-18T04:10:12.151Z,102781.94
2023-04-18T04:12:38.577Z,102774.38
2023-04-18T04:15:05.525Z,102782.19
2023-04-18T04:17:31.933Z,102778.88
2023-04-18T04:19:58.413Z,102785.34
2023-04-18T04:22:24.910Z,102778.41
2023-04-18T04:24:51.532Z,102778.41
2023-04-18T04:27:17.907Z,102783.66
2023-04-18T04:29:44.385Z,102786.16
2023-04-18T04:32:10.831Z,102769.97
2023-04-18T04:34:37.344Z,102779.31
2023-04-18T04:37:03.664Z,102777.31
2023-04-18T04:39:30.032Z,102782.63
2023-04-18T04:41:56.433Z,102782.50
2023-04-18T04:44:22.913Z,102776.47
2023-04-18T04:46:49.274Z,102786.50
2023-04-18T04:49:15.568Z,102796.91
2023-04-18T04:51:41.971Z,102792.53
2023-04-18T04:54:08.242Z,102794.88
2023-04-18T04:56:34.644Z,102798.88
2023-04-18T04:59:01.193Z,102803.84
2023-04-18T05:01:27.587Z,102807.16
2023-04-18T05:03:54.028Z,102801.94
2023-04-18T05:06:20.538Z,102806.19
2023-04-18T05:08:50.670Z,102809.25
2023-04-18T05:11:17.556Z,102799.81
2023-04-18T05:13:43.920Z,102798.38
2023-04-18T05:16:10.189Z,102813.53
2023-04-18T05:18:36.575Z,102808.06
2023-04-18T05:21:02.881Z,102804.03
2023-04-18T05:23:29.752Z,102800.47
2023-04-18T05:25:56.212Z,102814.38
2023-04-18T05:28:25.763Z,102807.78
2023-04-18T05:30:52.485Z,102808.94
2023-04-18T05:33:18.845Z,102813.88
2023-04-18T05:35:45.176Z,102819.09
2023-04-18T05:38:11.551Z,102823.44
2023-04-18T05:40:38.056Z,102819.16
2023-04-18T05:43:04.453Z,102819.13
2023-04-18T05:45:30.724Z,102825.22
2023-04-18T05:47:57.142Z,102824.16
2023-04-18T05:50:23.619Z,102820.13
2023-04-18T05:52:50.010Z,102821.25
2023-04-18T05:55:16.299Z,102824.56
2023-04-18T05:57:42.694Z,102821.03
2023-04-18T06:00:09.698Z,102818.16
2023-04-18T06:02:36.202Z,102823.06
2023-04-18T06:05:03.297Z,102817.00
2023-04-18T06:07:29.797Z,102830.78
2023-04-18T06:09:56.158Z,102824.28
2023-04-18T06:12:22.649Z,102833.88
2023-04-18T06:14:49.731Z,102842.97
2023-04-18T06:17:16.191Z,102834.47
2023-04-18T06:19:42.552Z,102840.78
2023-04-18T06:22:08.825Z,102832.75
2023-04-18T06:24:35.211Z,102847.69
2023-04-18T06:27:01.889Z,102847.34
2023-04-18T06:29:28.309Z,102838.56
2023-04-18T06:31:54.791Z,102844.84
2023-04-18T06:34:21.174Z,102841.81
2023-04-18T06:36:47.545Z,102842.53
2023-04-18T06:39:13.931Z,102844.47
2023-04-18T06:41:40.310Z,102833.72
2023-04-18T06:44:06.675Z,102849.09
2023-04-18T06:46:33.318Z,102840.63
2023-04-18T06:48:59.805Z,102835.06
2023-04-18T06:51:26.166Z,102847.59
2023-04-18T06:53:52.695Z,102833.38
2023-04-18T06:56:22.568Z,102847.13
2023-04-18T06:58:49.718Z,102848.09
2023-04-18T07:01:16.150Z,102856.41
2023-04-18T07:03:42.743Z,102837.59
2023-04-18T07:06:09.230Z,102842.88
2023-04-18T07:08:35.772Z,102845.94
2023-04-18T07:11:02.309Z,102843.88
2023-04-18T07:13:28.653Z,102838.97
2023-04-18T07:15:55.100Z,102853.69
2023-04-18T07:18:34.274Z,102854.13
2023-04-18T07:21:04.414Z,102845.00
2023-04-18T07:23:30.766Z,102850.22
2023-04-18T07:25:57.191Z,102853.34
2023-04-18T07:28:23.590Z,102854.91
2023-04-18T07:30:50.534Z,102853.09
2023-04-18T07:36:32.710Z,102857.47
2023-04-18T07:38:59.110Z,102870.09
2023-04-18T07:41:25.488Z,102870.13
2023-04-18T07:43:51.888Z,102866.00
2023-04-18T07:46:18.357Z,102866.00
2023-04-18T07:48:44.992Z,102872.88
2023-04-18T07:51:11.796Z,102880.72
2023-04-18T07:53:38.214Z,102880.63
2023-04-18T07:56:04.816Z,102876.41
2023-04-18T07:58:31.432Z,102878.03
2023-04-18T08:00:57.796Z,102880.56
2023-04-18T08:03:24.490Z,102884.22
2023-04-18T08:05:51.373Z,102890.59
2023-04-18T08:08:17.828Z,102889.84
2023-04-18T08:10:44.263Z,102883.19
2023-04-18T08:13:10.792Z,102892.56
2023-04-18T08:15:37.617Z,102878.28
2023-04-18T08:18:04.469Z,102889.22
2023-04-18T08:20:31.154Z,102877.81
2023-04-18T08:23:07.356Z,102884.47
2023-04-18T08:25:36.810Z,102882.25
2023-04-18T08:28:03.372Z,102886.19
2023-04-18T08:30:29.809Z,102897.69
2023-04-18T08:32:56.249Z,102894.06
2023-04-18T08:35:22.744Z,102885.88
2023-04-18T08:37:49.128Z,102889.84
2023-04-18T08:40:15.695Z,102893.31
2023-04-18T08:42:43.577Z,102896.28
2023-04-18T08:45:10.582Z,102890.31
2023-04-18T08:47:37.078Z,102895.34
2023-04-18T08:50:03.913Z,102892.72
2023-04-18T08:52:32.155Z,102884.84
2023-04-18T08:54:58.561Z,102896.34
2023-04-18T08:57:24.999Z,102891.97
2023-04-18T08:59:51.369Z,102884.91
2023-04-18T09:02:17.748Z,102888.50
2023-04-18T09:04:46.431Z,102893.13
2023-04-18T09:07:17.072Z,102899.13
2023-04-18T09:09:44.816Z,102882.94
2023-04-18T09:12:12.009Z,102882.13
2023-04-18T09:14:38.418Z,102884.88
2023-04-18T09:17:04.971Z,102877.41
2023-04-18T09:19:31.424Z,102889.94
2023-04-18T09:21:59.615Z,102881.78
2023-04-18T09:24:26.476Z,102886.91
2023-04-18T09:26:54.211Z,102881.66
2023-04-18T09:29:20.903Z,102892.25
2023-04-18T09:32:01.169Z,102891.72
2023-04-18T09:34:29.125Z,102890.28
2023-04-18T09:37:10.001Z,102891.50
2023-04-18T09:39:43.828Z,102887.94
2023-04-18T09:42:10.727Z,102892.22
2023-04-18T09:44:38.242Z,102878.50
2023-04-18T09:47:06.637Z,102873.09
2023-04-18T09:49:33.038Z,102874.81
2023-04-18T09:52:02.803Z,102876.44
2023-04-18T09:54:32.753Z,102881.41
2023-04-18T09:57:01.090Z,102875.84
2023-04-18T09:59:43.087Z,102883.72
2023-04-18T10:02:19.699Z,102885.03
2023-04-18T10:04:47.171Z,102879.47
2023-04-18T10:07:15.603Z,102863.38
2023-04-18T10:09:42.435Z,102869.44
2023-04-18T10:12:08.885Z,102867.69
2023-04-18T10:14:37.238Z,102882.44
2023-04-18T10:17:05.863Z,102884.84
2023-04-18T10:19:32.255Z,102865.47
2023-04-18T10:22:00.806Z,102869.59
2023-04-18T10:24:45.434Z,102871.28
2023-04-18T10:27:11.818Z,102873.09
2023-04-18T10:29:52.940Z,102872.25
2023-04-18T10:32:22.034Z,102869.81
2023-04-18T10:45:31.661Z,102855.69
2023-04-18T10:51:52.086Z,102849.59
2023-04-18T10:54:40.470Z,102846.94
2023-04-18T10:57:06.948Z,102846.28
2023-04-18T10:59:38.197Z,102841.38
2023-04-18T11:02:23.232Z,102852.38
2023-04-18T11:04:54.610Z,102834.09
2023-04-18T11:07:39.299Z,102831.88
2023-04-18T11:10:07.716Z,102830.28
2023-04-18T11:12:41.151Z,102828.97
2023-04-18T11:15:12.440Z,102828.91
2023-04-18T11:17:40.647Z,102831.59
2023-04-18T11:20:12.456Z,102832.97
2023-04-18T11:22:50.352Z,102832.47
2023-04-18T11:25:18.343Z,102811.84
2023-04-18T11:27:46.938Z,102824.69
2023-04-18T11:30:14.884Z,102824.22
2023-04-18T11:32:41.669Z,102816.00
2023-04-18T11:35:09.424Z,102817.63
2023-04-18T11:37:36.932Z,102812.31
2023-04-18T11:40:04.936Z,102815.06
2023-04-18T11:42:33.608Z,102816.88
2023-04-18T11:45:00.602Z,102802.81
2023-04-18T11:47:29.503Z,102818.88
2023-04-18T11:49:57.264Z,102823.53
2023-04-18T11:52:27.143Z,102816.19
2023-04-18T11:54:53.991Z,102817.66
2023-04-18T11:57:30.183Z,102817.66
2023-04-18T11:59:58.433Z,102817.13
2023-04-18T12:02:46.412Z,102815.84
2023-04-18T12:05:24.178Z,102822.72
2023-04-18T12:07:51.208Z,102823.81
2023-04-18T12:10:20.619Z,102820.13
2023-04-18T12:12:51.702Z,102811.72
2023-04-18T12:15:18.694Z,102823.06
2023-04-18T12:17:47.117Z,102813.31
2023-04-18T12:20:14.889Z,102811.25
2023-04-18T12:22:47.630Z,102818.19
2023-04-18T12:25:13.950Z,102825.00
2023-04-18T12:27:50.719Z,102808.75
2023-04-18T12:30:17.375Z,102824.16
2023-04-18T12:32:43.823Z,102815.13
2023-04-18T12:35:10.299Z,102819.59
2023-04-18T12:37:36.643Z,102816.22
2023-04-18T12:40:03.089Z,102813.88
2023-04-18T12:42:29.470Z,102814.94
2023-04-18T12:44:55.874Z,102827.69
2023-04-18T12:47:22.315Z,102815.03
2023-04-18T12:49:48.774Z,102820.69
2023-04-18T12:52:15.201Z,102808.03
2023-04-18T12:54:41.611Z,102801.84
2023-04-18T12:57:08.056Z,102806.13
2023-04-18T12:59:34.711Z,102807.50
2023-04-18T13:02:01.107Z,102812.28
2023-04-18T13:04:27.863Z,102811.63
2023-04-18T13:06:54.585Z,102808.75
2023-04-18T13:09:20.972Z,102805.66
2023-04-18T13:11:49.506Z,102810.44
2023-04-18T13:14:16.124Z,102797.94
2023-04-18T13:16:43.791Z,102798.00
2023-04-18T13:19:10.750Z,102800.84
2023-04-18T13:21:37.155Z,102799.91
2023-04-18T13:24:03.776Z,102801.09
2023-04-18T13:26:30.252Z,102803.09
2023-04-18T13:28:56.752Z,102796.72
2023-04-18T13:31:23.179Z,102787.47
2023-04-18T13:33:49.505Z,102788.22
2023-04-18T13:36:15.880Z,102793.75
2023-04-18T13:38:42.781Z,102787.97
2023-04-18T13:41:12.661Z,102787.31
2023-04-18T13:43:39.902Z,102788.16
2023-04-18T13:46:06.596Z,102788.47
2023-04-18T13:48:33.073Z,102790.97
2023-04-18T13:50:59.457Z,102794.69
2023-04-18T13:53:26.049Z,102803.25
2023-04-18T13:55:52.391Z,102785.03
2023-04-18T13:58:18.711Z,102785.19
2023-04-18T14:00:45.179Z,102786.94
2023-04-18T14:03:11.597Z,102779.84
2023-04-18T14:05:38.056Z,102778.00
2023-04-18T14:08:04.703Z,102781.03
2023-04-18T14:10:31.314Z,102779.91
2023-04-18T14:12:57.660Z,102783.56
2023-04-18T14:15:24.276Z,102781.22
2023-04-18T14:17:50.695Z,102772.91
2023-04-18T14:20:17.245Z,102765.56
2023-04-18T14:22:43.584Z,102761.19
2023-04-18T14:25:10.088Z,102764.16
2023-04-18T14:27:36.635Z,102764.13
2023-04-18T14:30:04.136Z,102756.69
2023-04-18T14:32:30.499Z,102752.94
2023-04-18T14:34:56.858Z,102763.97
2023-04-18T14:37:23.315Z,102754.22
2023-04-18T14:39:49.708Z,102769.41
2023-04-18T14:42:16.342Z,102753.78
2023-04-18T14:44:43.026Z,102760.72
2023-04-18T14:47:09.660Z,102755.56
2023-04-18T14:49:35.994Z,102755.31
2023-04-18T14:52:02.479Z,102749.09
2023-04-18T14:54:30.480Z,102744.69
2023-04-18T14:56:58.492Z,102739.09
2023-04-18T14:59:24.826Z,102748.78
2023-04-18T15:01:51.217Z,102742.91
2023-04-18T15:04:18.123Z,102741.28
2023-04-18T15:06:44.933Z,102735.66
2023-04-18T15:09:13.444Z,102738.75
2023-04-18T15:11:39.848Z,102740.94
2023-04-18T15:14:06.238Z,102729.75
2023-04-18T15:16:32.642Z,102730.78
2023-04-18T15:18:59.032Z,102727.41
2023-04-18T15:31:28.046Z,102729.66
2023-04-18T15:33:55.085Z,102726.88
2023-04-18T15:36:21.624Z,102719.78
2023-04-18T15:38:48.053Z,102716.28
2023-04-18T15:41:14.540Z,102729.34
2023-04-18T15:43:40.959Z,102729.31
2023-04-18T15:46:08.601Z,102714.53
2023-04-18T15:48:34.970Z,102725.22
2023-04-18T15:51:01.426Z,102715.97
2023-04-18T15:53:27.982Z,102712.88
2023-04-18T15:55:54.353Z,102720.44
2023-04-18T15:58:21.344Z,102719.66
2023-04-18T16:00:48.333Z,102709.75
2023-04-18T16:03:14.931Z,102708.94
2023-04-18T16:05:41.765Z,102714.38
2023-04-18T16:08:08.729Z,102706.44
2023-04-18T16:10:36.084Z,102706.44
2023-04-18T16:13:02.548Z,102711.56
2023-04-18T16:15:30.775Z,102714.13
2023-04-18T16:17:57.425Z,102706.66
2023-04-18T16:20:24.167Z,102712.28
2023-04-18T16:22:50.512Z,102711.38
2023-04-18T16:25:16.871Z,102706.38
2023-04-18T16:27:43.323Z,102711.09
2023-04-18T16:30:10.234Z,102705.81
2023-04-18T16:32:36.906Z,102700.78
2023-04-18T16:35:04.725Z,102707.19
2023-04-18T16:37:31.128Z,102703.84
2023-04-18T16:39:57.465Z,102704.66
2023-04-18T16:42:23.838Z,102713.75
2023-04-18T16:44:50.219Z,102707.50
2023-04-18T16:47:16.611Z,102705.16
2023-04-18T16:49:42.949Z,102719.50
2023-04-18T16:52:09.381Z,102712.78
2023-04-18T16:54:35.803Z,102713.88
2023-04-18T16:57:02.157Z,102713.50
2023-04-18T16:59:28.504Z,102713.88
2023-04-18T17:01:55.110Z,102709.31
2023-04-18T17:04:21.981Z,102703.34
2023-04-18T17:06:50.932Z,102696.97
2023-04-18T17:09:18.328Z,102707.75
2023-04-18T17:11:44.721Z,102701.69
2023-04-18T17:14:11.369Z,102706.41
2023-04-18T17:16:39.489Z,102704.78
2023-04-18T17:19:06.115Z,102703.50
2023-04-18T17:21:36.192Z,102709.59
2023-04-18T17:24:03.864Z,102710.22
2023-04-18T17:26:30.954Z,102708.78
2023-04-18T17:28:57.546Z,102707.13
2023-04-18T17:31:23.947Z,102710.59
2023-04-18T17:33:50.334Z,102713.75
2023-04-18T17:36:16.941Z,102715.75
2023-04-18T17:38:43.311Z,102717.13
2023-04-18T17:41:09.662Z,102715.84
2023-04-18T17:43:35.996Z,102714.66
2023-04-18T17:46:03.122Z,102724.91
2023-04-18T17:48:29.598Z,102724.53
2023-04-18T17:50:56.008Z,102726.34
2023-04-18T17:53:22.433Z,102714.94
2023-04-18T17:55:49.700Z,102730.09
2023-04-18T17:58:16.068Z,102725.88
2023-04-18T18:00:45.004Z,102729.84
2023-04-18T18:03:15.387Z,102725.28
2023-04-18T18:05:44.508Z,102728.44
2023-04-18T18:08:10.864Z,102731.47
2023-04-18T18:10:37.244Z,102730.88
2023-04-18T18:13:03.795Z,102735.19
2023-04-18T18:15:31.272Z,102741.94
2023-04-18T18:17:58.183Z,102744.84
2023-04-18T18:20:25.077Z,102747.34
2023-04-18T18:22:52.318Z,102756.72
2023-04-18T18:25:18.756Z,102752.97
2023-04-18T18:27:45.115Z,102756.28
2023-04-18T18:30:11.723Z,102757.00
2023-04-18T18:32:38.215Z,102757.66
2023-04-18T18:35:05.130Z,102765.38
2023-04-18T18:37:32.430Z,102765.19
2023-04-18T18:39:58.813Z,102761.47
2023-04-18T18:42:25.464Z,102762.28
2023-04-18T18:44:51.882Z,102772.78
2023-04-18T18:47:18.627Z,102766.38
2023-04-18T18:49:44.979Z,102779.97
2023-04-18T18:52:11.379Z,102774.25
2023-04-18T18:54:37.719Z,102788.50
2023-04-18T18:57:04.339Z,102787.31
2023-04-18T18:59:30.757Z,102788.81
2023-04-18T19:01:57.140Z,102791.44
2023-04-18T19:04:24.083Z,102791.38
2023-04-18T19:06:50.651Z,102796.94
2023-04-18T19:09:17.030Z,102796.69
2023-04-18T19:11:43.352Z,102800.16
2023-04-18T19:14:09.755Z,102799.47
2023-04-18T19:16:36.180Z,102810.25
2023-04-18T19:19:02.550Z,102805.13
2023-04-18T19:21:28.864Z,102806.84
2023-04-18T19:23:55.287Z,102813.19
2023-04-18T19:26:21.996Z,102814.50
2023-04-18T19:28:48.647Z,102814.97
2023-04-18T19:31:15.072Z,102810.66
2023-04-18T19:33:41.424Z,102819.69
2023-04-18T19:36:07.861Z,102808.81
2023-04-18T19:38:34.258Z,102821.38
2023-04-18T19:41:00.614Z,102815.47
2023-04-18T19:43:26.970Z,102813.81
2023-04-18T19:45:55.138Z,102819.06
2023-04-18T19:48:21.798Z,102826.56
2023-04-18T19:50:48.169Z,102826.25
2023-04-18T19:53:14.546Z,102827.22
2023-04-18T19:55:41.007Z,102824.56
2023-04-18T19:58:07.372Z,102830.03
2023-04-18T20:00:33.736Z,102837.59
2023-04-18T20:03:00.332Z,102827.41
2023-04-18T20:05:26.907Z,102836.38
2023-04-18T20:07:53.281Z,102834.06
2023-04-18T20:10:20.430Z,102839.06
2023-04-18T20:12:48.232Z,102832.72
2023-04-18T20:15:15.924Z,102835.78
2023-04-18T20:17:42.314Z,102829.22
2023-04-18T20:20:08.914Z,102836.06
2023-04-18T20:22:35.260Z,102841.91
2023-04-18T20:25:01.672Z,102842.50
2023-04-18T20:27:28.035Z,102845.19
2023-04-18T20:29:57.155Z,102846.03
2023-04-18T20:32:23.819Z,102846.31
2023-04-18T20:34:50.155Z,102850.06
2023-04-18T20:37:16.479Z,102848.31
2023-04-18T20:39:42.821Z,102851.91
2023-04-18T20:42:09.193Z,102855.34
2023-04-18T20:44:35.547Z,102850.56
2023-04-18T20:47:01.933Z,102850.84
2023-04-18T20:49:28.263Z,102851.97
2023-04-18T20:51:54.760Z,102852.25
2023-04-18T20:54:21.208Z,102853.38
2023-04-18T20:56:47.654Z,102861.53
2023-04-18T20:59:13.985Z,102859.31
2023-04-18T21:01:40.384Z,102861.41
2023-04-18T21:04:06.923Z,102862.50
2023-04-18T21:06:33.434Z,102866.94
2023-04-18T21:08:59.897Z,102873.97
2023-04-18T21:11:26.250Z,102869.69
2023-04-18T21:13:52.589Z,102874.78
2023-04-18T21:16:18.977Z,102872.88
2023-04-18T21:18:45.422Z,102878.91
2023-04-18T21:21:11.794Z,102867.94
2023-04-18T21:23:42.430Z,102881.28
2023-04-18T21:26:11.473Z,102877.75
2023-04-18T21:28:57.150Z,102875.97
2023-04-18T21:31:25.364Z,102879.97
2023-04-18T21:33:53.466Z,102878.09
2023-04-18T21:36:19.937Z,102887.81
2023-04-18T21:38:46.434Z,102881.41
2023-04-18T21:41:16.466Z,102882.91
2023-04-18T21:43:43.700Z,102889.91
2023-04-18T21:46:10.848Z,102884.97
2023-04-18T21:48:41.010Z,102884.44
2023-04-18T21:51:08.773Z,102893.66
2023-04-18T21:53:35.412Z,102885.13
2023-04-18T21:56:01.733Z,102888.25
2023-04-18T21:58:28.558Z,102889.78
2023-04-18T22:00:55.022Z,102892.25
2023-04-18T22:03:21.502Z,102887.44
2023-04-18T22:05:48.094Z,102880.59
2023-04-18T22:08:14.414Z,102879.47
2023-04-18T22:10:40.972Z,102878.53
2023-04-18T22:13:07.411Z,102880.03
2023-04-18T22:15:33.772Z,102875.50
2023-04-18T22:18:00.232Z,102871.50
2023-04-18T22:20:26.605Z,102878.41
2023-04-18T22:22:55.764Z,102872.06
2023-04-18T22:25:22.166Z,102875.38
2023-04-18T22:27:48.506Z,102878.94
2023-04-18T22:30:15.097Z,102892.53
2023-04-18T22:32:41.767Z,102882.78
2023-04-18T22:35:08.678Z,102881.25
2023-04-18T22:37:34.999Z,102884.56
2023-04-18T22:40:01.289Z,102885.50
2023-04-18T22:42:28.747Z,102882.88
2023-04-18T22:44:56.339Z,102889.91
2023-04-18T22:47:22.742Z,102885.06
2023-04-18T22:49:49.210Z,102890.41
2023-04-18T22:52:15.974Z,102892.88
2023-04-18T22:54:42.404Z,102894.47
2023-04-18T22:57:08.750Z,102892.56
2023-04-18T22:59:35.074Z,102889.78
2023-04-18T23:02:01.527Z,102893.94
2023-04-18T23:04:28.149Z,102887.59
2023-04-18T23:06:54.645Z,102895.41
2023-04-18T23:09:21.008Z,102886.06
2023-04-18T23:11:47.283Z,102894.72
2023-04-18T23:14:14.156Z,102893.06
2023-04-18T23:16:42.573Z,102889.38
2023-04-18T23:19:10.179Z,102891.41
2023-04-18T23:21:36.521Z,102891.94
2023-04-18T23:24:02.859Z,102891.66
2023-04-18T23:26:29.427Z,102889.72
2023-04-18T23:28:55.814Z,102889.34
2023-04-18T23:31:22.253Z,102891.94
2023-04-18T23:33:48.614Z,102886.72
2023-04-18T23:36:15.115Z,102883.03
2023-04-18T23:38:41.930Z,102885.63
2023-04-18T23:41:08.400Z,102882.91
2023-04-18T23:43:35.317Z,102881.81
2023-04-18T23:46:01.783Z,102877.44
2023-04-18T23:48:28.125Z,102879.75
2023-04-18T23:50:54.370Z,102876.63
2023-04-18T23:53:21.878Z,102882.53
2023-04-18T23:55:50.675Z,102882.97
2023-04-18T23:58:17.458Z,102877.47
